Terminal Aerodrome Forecast
Issued by NWS Brownsville, TX

Home | Current Version | Previous Version | Text Only | Print | Product List | Glossary On
Versions: 1 2 3 4 5 6 7 8 9 10 11 12 13 14 15 16 17 18 19 20 21
686
FTUS44 KBRO 210536
TAFHRL
TAF
KHRL 210536Z 2106/2206 17010KT P6SM BKN015
     FM211400 17013KT P6SM BKN007
     FM211600 15018G25KT P6SM BKN015
     FM220100 15012KT P6SM VCTS OVC007CB=

USA.gov is the U.S. government's official web portal to all federal, state and local government web resources and services.